createdAt,value
2022-07-29T00:01:30.859Z,22.87
2022-07-29T00:04:36.832Z,22.70
2022-07-29T00:07:48.493Z,22.72
2022-07-29T00:10:51.469Z,22.80
2022-07-29T00:13:54.261Z,22.67
2022-07-29T00:16:57.327Z,22.68
2022-07-29T00:20:00.078Z,22.66
2022-07-29T00:23:04.124Z,22.65
2022-07-29T00:26:08.171Z,22.52
2022-07-29T00:29:33.624Z,22.29
2022-07-29T00:32:34.319Z,22.16
2022-07-29T00:35:47.206Z,22.18
2022-07-29T00:38:52.103Z,22.28
2022-07-29T00:41:55.273Z,22.14
2022-07-29T00:44:57.937Z,22.16
2022-07-29T00:48:01.255Z,22.10
2022-07-29T00:51:06.695Z,21.97
2022-07-29T00:54:09.892Z,21.85
2022-07-29T00:57:13.684Z,21.84
2022-07-29T01:00:27.412Z,21.73
2022-07-29T01:03:31.476Z,21.70
2022-07-29T01:06:35.753Z,21.77
2022-07-29T01:09:46.816Z,21.67
2022-07-29T01:12:54.894Z,21.48
2022-07-29T01:16:08.308Z,21.36
2022-07-29T01:19:22.124Z,21.41
2022-07-29T01:22:43.812Z,21.42
2022-07-29T01:26:06.446Z,21.50
2022-07-29T01:29:25.888Z,21.49
2022-07-29T01:32:36.744Z,21.48
2022-07-29T01:35:43.902Z,21.53
2022-07-29T01:38:56.005Z,21.45
2022-07-29T01:42:08.441Z,21.38
2022-07-29T01:45:14.295Z,21.35
2022-07-29T01:48:22.721Z,21.24
2022-07-29T01:51:32.800Z,21.28
2022-07-29T01:54:55.992Z,21.41
2022-07-29T01:58:02.082Z,21.31
2022-07-29T02:01:07.996Z,21.32
2022-07-29T02:04:13.843Z,21.23
2022-07-29T02:07:34.788Z,21.10
2022-07-29T02:10:39.577Z,21.02
2022-07-29T02:13:43.085Z,20.91
2022-07-29T02:16:48.814Z,20.92
2022-07-29T02:19:53.430Z,20.95
2022-07-29T02:22:59.655Z,20.99
2022-07-29T02:26:03.902Z,20.81
2022-07-29T02:29:09.945Z,20.72
2022-07-29T02:32:15.367Z,20.66
2022-07-29T02:35:21.100Z,20.55
2022-07-29T02:38:43.866Z,20.50
2022-07-29T02:41:50.369Z,20.46
2022-07-29T02:44:53.505Z,20.51
2022-07-29T02:47:59.265Z,20.44
2022-07-29T02:51:13.460Z,20.32
2022-07-29T02:54:57.183Z,20.23
2022-07-29T02:58:08.905Z,20.22
2022-07-29T03:01:22.102Z,20.28
2022-07-29T03:04:27.428Z,20.34
2022-07-29T03:07:31.015Z,20.32
2022-07-29T03:10:35.969Z,20.17
2022-07-29T03:13:39.767Z,20.13
2022-07-29T03:16:43.267Z,20.09
2022-07-29T03:19:46.829Z,20.11
2022-07-29T03:22:49.748Z,20.08
2022-07-29T03:25:53.333Z,20.13
2022-07-29T03:28:57.322Z,19.95
2022-07-29T03:32:00.410Z,20.01
2022-07-29T03:35:04.366Z,19.78
2022-07-29T03:38:09.872Z,19.74
2022-07-29T03:41:15.761Z,19.79
2022-07-29T03:44:20.831Z,19.78
2022-07-29T03:47:43.599Z,19.71
2022-07-29T03:50:52.042Z,19.64
2022-07-29T03:53:54.869Z,19.63
2022-07-29T03:57:02.241Z,19.72
2022-07-29T04:00:06.599Z,19.73
2022-07-29T04:03:11.714Z,19.66
2022-07-29T04:06:15.939Z,19.58
2022-07-29T04:09:18.925Z,19.62
2022-07-29T04:12:22.399Z,19.58
2022-07-29T04:15:25.640Z,19.64
2022-07-29T04:18:29.804Z,19.64
2022-07-29T04:21:37.741Z,19.71
2022-07-29T04:24:44.199Z,19.78
2022-07-29T04:28:02.984Z,19.86
2022-07-29T04:31:05.729Z,20.01
2022-07-29T04:34:10.531Z,20.12
2022-07-29T04:37:13.819Z,20.23
2022-07-29T04:40:18.291Z,20.30
2022-07-29T04:43:22.468Z,20.33
2022-07-29T04:46:26.080Z,20.41
2022-07-29T04:49:28.957Z,20.46
2022-07-29T04:52:32.149Z,20.48
2022-07-29T04:55:36.041Z,20.71
2022-07-29T04:58:42.264Z,20.88
2022-07-29T05:01:45.008Z,21.01
2022-07-29T05:04:47.996Z,21.06
2022-07-29T05:07:50.799Z,21.18
2022-07-29T05:10:54.064Z,21.29
2022-07-29T05:13:56.675Z,21.59
2022-07-29T05:17:00.046Z,21.83
2022-07-29T05:20:04.519Z,22.11
2022-07-29T05:23:07.618Z,22.47
2022-07-29T05:26:10.291Z,22.73
2022-07-29T05:29:42.764Z,23.34
2022-07-29T05:32:35.898Z,23.71
2022-07-29T05:35:38.962Z,24.48
2022-07-29T05:38:41.768Z,25.04
2022-07-29T05:41:47.692Z,25.42
2022-07-29T05:44:54.701Z,25.61
2022-07-29T05:47:58.257Z,25.81
2022-07-29T05:51:01.214Z,26.47
2022-07-29T05:54:07.614Z,26.87
2022-07-29T05:57:26.045Z,27.29
2022-07-29T06:00:29.128Z,27.44
2022-07-29T06:03:32.628Z,27.60
2022-07-29T06:06:36.012Z,27.60
2022-07-29T06:09:39.302Z,27.79
2022-07-29T06:12:44.723Z,27.96
2022-07-29T06:15:47.902Z,28.04
2022-07-29T06:18:50.588Z,27.82
2022-07-29T06:21:53.652Z,28.14
2022-07-29T06:24:56.280Z,28.26
2022-07-29T06:27:59.601Z,28.12
2022-07-29T06:31:02.364Z,28.70
2022-07-29T06:34:05.618Z,28.68
2022-07-29T06:37:09.452Z,29.38
2022-07-29T06:40:37.274Z,29.42
2022-07-29T06:43:52.477Z,29.38
2022-07-29T06:46:57.867Z,29.43
2022-07-29T06:50:01.720Z,28.94
2022-07-29T06:53:07.070Z,29.36
2022-07-29T06:56:10.086Z,29.47
2022-07-29T06:59:13.776Z,29.72
2022-07-29T07:02:16.594Z,30.06
2022-07-29T07:05:19.799Z,30.52
2022-07-29T07:08:23.307Z,30.38
2022-07-29T07:11:26.447Z,30.12
2022-07-29T07:14:30.206Z,30.15
2022-07-29T07:17:35.480Z,30.47
2022-07-29T07:20:38.663Z,31.00
2022-07-29T07:23:41.940Z,31.05
2022-07-29T07:26:45.929Z,31.19
2022-07-29T07:29:48.893Z,30.66
2022-07-29T07:32:51.735Z,30.29
2022-07-29T07:35:54.986Z,30.20
2022-07-29T07:38:57.711Z,30.39
2022-07-29T07:42:01.060Z,30.33
2022-07-29T07:45:13.406Z,30.47
2022-07-29T07:48:17.133Z,30.47
2022-07-29T07:51:19.923Z,30.45
2022-07-29T07:54:23.459Z,30.00
2022-07-29T07:57:26.395Z,30.32
2022-07-29T08:00:30.641Z,30.41
2022-07-29T08:03:34.560Z,30.14
2022-07-29T08:06:38.030Z,29.96
2022-07-29T08:09:40.997Z,30.52
2022-07-29T08:12:43.868Z,30.78
2022-07-29T08:15:47.201Z,31.00
2022-07-29T08:18:50.016Z,30.86
2022-07-29T08:21:55.139Z,31.10
2022-07-29T08:24:58.121Z,31.23
2022-07-29T08:28:01.123Z,31.54
2022-07-29T08:31:03.877Z,31.62
2022-07-29T08:34:07.119Z,31.89
2022-07-29T08:37:11.516Z,31.92
2022-07-29T08:40:15.418Z,31.93
2022-07-29T08:43:18.402Z,31.90
2022-07-29T08:46:23.005Z,31.89
2022-07-29T08:49:25.992Z,32.12
2022-07-29T08:52:30.392Z,32.61
2022-07-29T08:55:34.064Z,33.09
2022-07-29T08:58:38.293Z,33.30
2022-07-29T09:01:45.232Z,33.48
2022-07-29T09:04:49.352Z,33.38
2022-07-29T09:07:55.264Z,33.83
2022-07-29T09:10:59.519Z,33.64
2022-07-29T09:14:03.679Z,34.36
2022-07-29T09:17:08.074Z,33.79
2022-07-29T09:20:13.698Z,34.13
2022-07-29T09:23:23.045Z,34.58
2022-07-29T09:26:34.884Z,34.33
2022-07-29T09:29:38.635Z,34.54
2022-07-29T09:33:04.763Z,34.83
2022-07-29T09:36:09.897Z,35.05
2022-07-29T09:39:13.741Z,35.17
2022-07-29T09:42:30.270Z,35.19
2022-07-29T09:45:36.304Z,35.04
2022-07-29T09:48:39.822Z,35.48
2022-07-29T09:51:44.644Z,35.80
2022-07-29T09:54:47.832Z,36.05
2022-07-29T09:57:50.527Z,36.39
2022-07-29T10:00:54.805Z,36.63
2022-07-29T10:04:00.240Z,37.18
2022-07-29T10:07:06.541Z,36.73
2022-07-29T10:10:09.883Z,36.55
2022-07-29T10:13:16.375Z,36.79
2022-07-29T10:16:20.848Z,36.84
2022-07-29T10:19:25.747Z,36.49
2022-07-29T10:22:51.989Z,36.37
2022-07-29T10:25:52.055Z,37.15
2022-07-29T10:28:56.529Z,36.97
2022-07-29T10:32:17.836Z,37.16
2022-07-29T10:35:53.215Z,37.70
2022-07-29T10:39:07.353Z,37.54
2022-07-29T10:42:13.764Z,38.06
2022-07-29T10:45:20.290Z,37.45
2022-07-29T10:48:24.388Z,37.01
2022-07-29T10:51:47.104Z,37.39
2022-07-29T10:54:52.566Z,37.60
2022-07-29T10:58:18.049Z,37.87
2022-07-29T11:01:37.083Z,37.89
2022-07-29T11:04:47.071Z,37.34
2022-07-29T11:08:13.626Z,35.53
2022-07-29T11:11:33.346Z,34.55
2022-07-29T11:14:53.270Z,35.31
2022-07-29T11:17:59.194Z,36.59
2022-07-29T11:21:03.739Z,37.54
2022-07-29T11:24:30.001Z,37.65
2022-07-29T11:27:40.634Z,38.04
2022-07-29T11:30:54.552Z,37.50
2022-07-29T11:34:01.210Z,37.56
2022-07-29T11:37:11.661Z,37.02
2022-07-29T11:40:18.439Z,37.34
2022-07-29T11:43:52.578Z,37.68
2022-07-29T11:46:55.733Z,37.13
2022-07-29T11:50:00.387Z,36.35
2022-07-29T11:53:13.629Z,36.34
2022-07-29T11:56:22.620Z,36.12
2022-07-29T11:59:33.116Z,36.45
2022-07-29T12:02:43.539Z,36.50
2022-07-29T12:05:52.114Z,36.75
2022-07-29T12:08:54.879Z,37.10
2022-07-29T12:12:04.926Z,37.06
2022-07-29T12:15:20.379Z,37.01
2022-07-29T12:18:24.628Z,37.30
2022-07-29T12:21:29.087Z,37.63
2022-07-29T12:24:44.968Z,36.98
2022-07-29T12:27:48.794Z,37.15
2022-07-29T12:30:54.074Z,35.91
2022-07-29T12:33:56.966Z,35.19
2022-07-29T12:37:02.339Z,36.47
2022-07-29T12:40:08.749Z,36.90
2022-07-29T12:43:17.519Z,37.29
2022-07-29T12:46:20.507Z,36.54
2022-07-29T12:49:24.297Z,35.56
2022-07-29T12:52:35.118Z,34.99
2022-07-29T12:55:52.960Z,34.66
2022-07-29T12:58:55.727Z,34.13
2022-07-29T13:02:01.344Z,34.68
2022-07-29T13:05:05.978Z,34.30
2022-07-29T13:08:29.741Z,34.08
2022-07-29T13:11:34.453Z,33.95
2022-07-29T13:14:47.803Z,34.67
2022-07-29T13:17:50.437Z,35.44
2022-07-29T13:20:53.978Z,35.71
2022-07-29T13:23:56.651Z,36.05
2022-07-29T13:26:59.725Z,36.49
2022-07-29T13:30:06.407Z,35.30
2022-07-29T13:33:09.525Z,36.35
2022-07-29T13:36:12.124Z,36.68
2022-07-29T13:39:15.168Z,36.38
2022-07-29T13:42:17.825Z,36.28
2022-07-29T13:45:20.855Z,35.43
2022-07-29T13:48:23.559Z,35.14
2022-07-29T13:51:26.727Z,35.01
2022-07-29T13:54:29.806Z,35.48
2022-07-29T13:57:33.157Z,35.86
2022-07-29T14:00:36.641Z,36.04
2022-07-29T14:03:45.645Z,36.50
2022-07-29T14:06:48.689Z,36.28
2022-07-29T14:09:52.328Z,36.09
2022-07-29T14:12:54.997Z,35.69
2022-07-29T14:15:58.830Z,35.42
2022-07-29T14:19:01.646Z,35.21
2022-07-29T14:22:06.246Z,35.13
2022-07-29T14:25:14.525Z,35.38
2022-07-29T14:28:18.391Z,35.21
2022-07-29T14:31:21.352Z,34.47
2022-07-29T14:34:24.353Z,34.79
2022-07-29T14:37:27.041Z,35.03
2022-07-29T14:40:30.291Z,35.24
2022-07-29T14:43:33.168Z,35.38
2022-07-29T14:46:36.265Z,35.10
2022-07-29T14:49:38.945Z,35.06
2022-07-29T14:52:42.281Z,35.05
2022-07-29T14:55:45.161Z,34.92
2022-07-29T14:58:51.558Z,34.78
2022-07-29T15:01:54.822Z,34.50
2022-07-29T15:04:57.960Z,34.58
2022-07-29T15:08:02.465Z,34.63
2022-07-29T15:11:05.600Z,34.57
2022-07-29T15:14:08.398Z,34.44
2022-07-29T15:17:12.784Z,34.24
2022-07-29T15:20:15.678Z,34.13
2022-07-29T15:23:18.743Z,33.98
2022-07-29T15:26:21.764Z,33.84
2022-07-29T15:29:25.485Z,33.80
2022-07-29T15:32:30.392Z,33.76
2022-07-29T15:35:40.236Z,33.71
2022-07-29T15:38:45.262Z,33.68
2022-07-29T15:41:48.384Z,33.55
2022-07-29T15:44:51.567Z,33.41
2022-07-29T15:47:54.571Z,33.28
2022-07-29T15:50:57.276Z,33.11
2022-07-29T15:54:02.971Z,33.09
2022-07-29T15:57:09.737Z,33.11
2022-07-29T16:00:13.993Z,33.06
2022-07-29T16:03:17.083Z,33.01
2022-07-29T16:06:20.170Z,32.96
2022-07-29T16:09:23.519Z,32.88
2022-07-29T16:12:27.312Z,32.80
2022-07-29T16:15:31.980Z,32.76
2022-07-29T16:18:35.057Z,32.80
2022-07-29T16:21:39.953Z,32.79
2022-07-29T16:24:42.799Z,32.70
2022-07-29T16:27:45.846Z,32.53
2022-07-29T16:30:48.733Z,32.38
2022-07-29T16:33:55.247Z,32.32
2022-07-29T16:36:59.199Z,32.17
2022-07-29T16:40:05.027Z,32.07
2022-07-29T16:43:08.283Z,32.04
2022-07-29T16:46:18.620Z,32.07
2022-07-29T16:49:22.222Z,32.07
2022-07-29T16:52:25.326Z,32.05
2022-07-29T16:55:30.572Z,31.99
2022-07-29T16:58:34.058Z,31.96
2022-07-29T17:01:37.137Z,31.98
2022-07-29T17:04:41.195Z,31.94
2022-07-29T17:07:44.056Z,31.90
2022-07-29T17:10:47.551Z,31.91
2022-07-29T17:13:51.666Z,31.90
2022-07-29T17:17:01.010Z,31.85
2022-07-29T17:20:05.565Z,31.85
2022-07-29T17:23:08.638Z,31.83
2022-07-29T17:26:11.448Z,31.78
2022-07-29T17:29:16.227Z,31.69
2022-07-29T17:32:18.948Z,31.51
2022-07-29T17:35:41.061Z,31.36
2022-07-29T17:38:43.708Z,31.26
2022-07-29T17:41:47.057Z,31.13
2022-07-29T17:44:49.724Z,31.00
2022-07-29T17:47:52.807Z,30.79
2022-07-29T17:50:56.654Z,30.57
2022-07-29T17:53:59.920Z,30.45
2022-07-29T17:57:02.744Z,30.40
2022-07-29T18:00:08.515Z,30.26
2022-07-29T18:03:11.894Z,30.25
2022-07-29T18:06:15.930Z,30.18
2022-07-29T18:09:19.051Z,30.13
2022-07-29T18:12:22.557Z,29.98
2022-07-29T18:15:25.689Z,29.71
2022-07-29T18:18:28.481Z,29.40
2022-07-29T18:21:43.591Z,29.12
2022-07-29T18:24:54.242Z,28.96
2022-07-29T18:28:00.483Z,28.76
2022-07-29T18:31:03.859Z,28.44
2022-07-29T18:34:08.254Z,28.32
2022-07-29T18:37:13.852Z,28.09
2022-07-29T18:40:17.018Z,27.97
2022-07-29T18:43:19.673Z,27.73
2022-07-29T18:46:22.844Z,27.74
2022-07-29T18:49:26.121Z,27.67
2022-07-29T18:52:29.798Z,27.72
2022-07-29T18:55:32.466Z,27.63
2022-07-29T18:58:37.266Z,27.64
2022-07-29T19:01:39.993Z,27.60
2022-07-29T19:04:43.322Z,27.59
2022-07-29T19:07:46.026Z,27.66
2022-07-29T19:10:48.977Z,27.64
2022-07-29T19:13:51.743Z,27.54
2022-07-29T19:16:54.881Z,27.55
2022-07-29T19:19:57.817Z,27.59
2022-07-29T19:23:00.803Z,27.38
2022-07-29T19:26:03.677Z,27.42
2022-07-29T19:29:11.864Z,27.38
2022-07-29T19:32:24.431Z,27.32
2022-07-29T19:35:31.349Z,27.30
2022-07-29T19:38:35.506Z,27.34
2022-07-29T19:41:38.943Z,27.29
2022-07-29T19:44:41.806Z,27.27
2022-07-29T19:47:44.718Z,27.28
2022-07-29T19:50:47.695Z,27.43
2022-07-29T19:53:51.846Z,27.33
2022-07-29T19:56:54.660Z,27.45
2022-07-29T19:59:57.828Z,27.41
2022-07-29T20:03:00.981Z,27.51
2022-07-29T20:06:04.181Z,27.51
2022-07-29T20:09:07.620Z,27.49
2022-07-29T20:12:20.068Z,27.41
2022-07-29T20:15:23.075Z,27.31
2022-07-29T20:18:27.885Z,27.23
2022-07-29T20:21:31.622Z,27.25
2022-07-29T20:24:35.086Z,27.13
2022-07-29T20:27:42.941Z,27.18
2022-07-29T20:30:47.523Z,27.12
2022-07-29T20:33:51.236Z,27.10
2022-07-29T20:36:54.305Z,27.04
2022-07-29T20:39:56.993Z,26.82
2022-07-29T20:43:00.488Z,26.74
2022-07-29T20:46:03.673Z,26.72
2022-07-29T20:49:07.626Z,26.76
2022-07-29T20:52:12.896Z,26.66
2022-07-29T20:55:17.140Z,26.50
2022-07-29T20:58:20.421Z,26.52
2022-07-29T21:01:26.731Z,26.73
2022-07-29T21:04:32.672Z,26.82
2022-07-29T21:07:37.064Z,26.89
2022-07-29T21:10:39.812Z,26.77
2022-07-29T21:13:45.621Z,26.70
2022-07-29T21:16:48.529Z,26.76
2022-07-29T21:19:55.520Z,26.83
2022-07-29T21:22:58.473Z,26.86
2022-07-29T21:26:04.597Z,27.01
2022-07-29T21:29:07.962Z,27.06
2022-07-29T21:32:11.124Z,27.13
2022-07-29T21:35:30.321Z,27.03
2022-07-29T21:38:38.920Z,27.01
2022-07-29T21:41:41.714Z,27.06
2022-07-29T21:44:45.266Z,26.91
2022-07-29T21:47:48.168Z,26.81
2022-07-29T21:50:52.283Z,26.78
2022-07-29T21:53:54.982Z,26.80
2022-07-29T21:56:59.413Z,26.85
2022-07-29T22:00:05.578Z,26.69
2022-07-29T22:03:15.467Z,26.58
2022-07-29T22:06:18.705Z,26.44
2022-07-29T22:09:21.967Z,26.48
2022-07-29T22:12:25.003Z,26.58
2022-07-29T22:15:28.949Z,26.75
2022-07-29T22:18:32.174Z,26.68
2022-07-29T22:21:35.105Z,26.65
2022-07-29T22:24:38.267Z,26.54
2022-07-29T22:27:41.813Z,26.59
2022-07-29T22:30:44.946Z,26.51
2022-07-29T22:33:53.317Z,26.54
2022-07-29T22:36:56.251Z,26.22
2022-07-29T22:39:59.009Z,26.24
2022-07-29T22:43:03.344Z,26.12
2022-07-29T22:46:09.471Z,26.16
2022-07-29T22:49:12.746Z,26.07
2022-07-29T22:52:15.641Z,25.75
2022-07-29T22:55:18.754Z,25.64
2022-07-29T22:58:21.438Z,25.12
2022-07-29T23:01:37.837Z,24.86
2022-07-29T23:04:41.086Z,24.52
2022-07-29T23:07:44.152Z,24.01
2022-07-29T23:10:47.375Z,23.94
2022-07-29T23:13:50.411Z,23.84
2022-07-29T23:16:54.005Z,23.77
2022-07-29T23:19:57.042Z,23.69
2022-07-29T23:22:59.689Z,23.42
2022-07-29T23:26:02.746Z,23.39
2022-07-29T23:29:05.593Z,23.31
2022-07-29T23:32:08.549Z,23.17
2022-07-29T23:35:11.380Z,23.06
2022-07-29T23:38:14.482Z,23.02
2022-07-29T23:41:17.401Z,22.54
2022-07-29T23:44:20.527Z,22.36
2022-07-29T23:47:25.661Z,22.02
2022-07-29T23:50:28.685Z,21.76
2022-07-29T23:53:35.462Z,21.62
2022-07-29T23:56:38.434Z,21.71
2022-07-29T23:59:41.292Z,21.76
